Tinsdal — V2AJ2 — position and weather

sailwx.info

Track history (hours):
 
Tides and Currents Weather Stations Pressure Air Temp Water Temp Dewpoint Dewpoint Depression Visibility Wind Speed Wind Dir Waves Ship Positions

Tinsdal

Last reported at 2015-Jun-30 07:32 UTC. Time now 2015-Jun-30 08:23 UTC.
Position N 43°33' W 005°41'.

Length 90 m; draft 4.6 m.

Type: Cargo ship. MMSI: 305573000.

Date/timePositionNaut miles runAvg speedWind from/ knotsBaromVisibWave heightAir tempDewpointWater temp
2015-Jun-30 07:32N 43°33' W 005°41'0 0.0
2015-Jun-30 06:33N 43°33' W 005°41'0 0.0
2015-Jun-30 05:33N 43°33' W 005°41'0 0.0
2015-Jun-30 04:33N 43°33' W 005°41'0 0.0
2015-Jun-30 03:33N 43°33' W 005°41'0 0.0
2015-Jun-30 02:33N 43°33' W 005°41'0 0.0
2015-Jun-30 01:33N 43°33' W 005°41'0 0.0
2015-Jun-30 00:32N 43°33' W 005°41'0 0.0
2015-Jun-29 23:18N 43°33' W 005°41'0 0.0
2015-Jun-29 22:32N 43°33' W 005°41'0 0.0
2015-Jun-29 21:32N 43°33' W 005°41'0 0.0
2015-Jun-29 20:33N 43°33' W 005°41'0 0.0
2015-Jun-29 19:32N 43°33' W 005°41'0 0.0
2015-Jun-29 18:32N 43°33' W 005°41'0 0.0
2015-Jun-29 17:33N 43°33' W 005°41'0 0.0
2015-Jun-29 16:33N 43°33' W 005°41'0 0.0
2015-Jun-29 15:33N 43°33' W 005°41'0 0.0
2015-Jun-29 14:33N 43°33' W 005°41'0 0.0
2015-Jun-29 13:33N 43°33' W 005°41'0 0.0
2015-Jun-29 12:33N 43°33' W 005°41'0 0.0
2015-Jun-29 11:30N 43°33' W 005°41'0 0.0
2015-Jun-29 10:33N 43°33' W 005°41'0 0.0
2015-Jun-29 09:32N 43°33' W 005°41'0 0.0
2015-Jun-29 08:33N 43°33' W 005°41'0 0.0
2015-Jun-29 07:33N 43°33' W 005°41'0 0.0
2015-Jun-29 06:32N 43°33' W 005°41'0 0.0
2015-Jun-29 05:33N 43°33' W 005°41'0 0.0
2015-Jun-29 04:33N 43°33' W 005°41'0 0.0
2015-Jun-29 03:33N 43°33' W 005°41'0 0.0
2015-Jun-29 02:33N 43°33' W 005°41'0 0.0
2015-Jun-29 01:33N 43°33' W 005°41'0 0.0
2015-Jun-29 00:32N 43°33' W 005°41'0 0.0
2015-Jun-28 23:32N 43°33' W 005°41'0 0.0
2015-Jun-28 22:31N 43°33' W 005°41'0 0.0
2015-Jun-28 21:32N 43°33' W 005°41'0 0.0
2015-Jun-28 20:33N 43°33' W 005°41'0 0.0
2015-Jun-28 19:33N 43°33' W 005°41'0 0.0
2015-Jun-28 18:33N 43°33' W 005°41'0 0.0
2015-Jun-28 17:33N 43°33' W 005°41'0 0.0
2015-Jun-28 16:33N 43°33' W 005°41'0 0.0
2015-Jun-28 15:33N 43°33' W 005°41'0 0.0
2015-Jun-28 14:33N 43°33' W 005°41'0 0.0
2015-Jun-28 13:32N 43°33' W 005°41'0 0.0
2015-Jun-28 12:33N 43°33' W 005°41'0 0.0
2015-Jun-28 11:33N 43°33' W 005°41'0 0.0
2015-Jun-28 10:32N 43°33' W 005°41'0 0.0
2015-Jun-28 09:33N 43°33' W 005°41'0 0.0
2015-Jun-28 08:33N 43°33' W 005°41'0 0.0
2015-Jun-28 07:33N 43°33' W 005°41'0 0.2
2015-Jun-28 06:33N 43°34' W 005°41'8 7.3
2015-Jun-28 05:30N 43°41' W 005°41'138 9.6
2015-Jun-27 15:08N 45°59' W 005°49'7 9.7
2015-Jun-27 14:22N 46°06' W 005°49'8 9.6
2015-Jun-27 13:33N 46°14' W 005°50'10 9.4
2015-Jun-27 12:32N 46°24' W 005°50'9 9.3
2015-Jun-27 11:33N 46°33' W 005°51'19 9.7
2015-Jun-27 09:33N 46°52' W 005°51'257 8.0
2015-Jun-26 01:33N 50°12' W 001°46'4010.0
2015-Jun-25 21:33N 50°23' W 000°46'4310.7
2015-Jun-25 17:33N 50°35' E 000°18'9 9.4
2015-Jun-25 16:33N 50°38' E 000°32'9 9.2
2015-Jun-25 15:32N 50°43' E 000°45'10 9.5
2015-Jun-25 14:29N 50°49' E 000°57'1010.5
2015-Jun-25 13:33N 50°55' E 001°10'1411.3
2015-Jun-25 12:16N 51°04' E 001°27'811.0
2015-Jun-25 11:33N 51°10' E 001°37'1010.3
2015-Jun-25 10:33N 51°17' E 001°48'10 9.5
2015-Jun-25 09:28N 51°26' E 001°57'9 8.8
2015-Jun-25 08:29N 51°33' E 002°04'10 8.6
2015-Jun-25 07:20N 51°41' E 002°14'44 8.8
2015-Jun-25 02:22N 52°03' E 003°16'8 9.5
2015-Jun-25 01:32N 52°03' E 003°28'10 9.9
2015-Jun-25 00:33N 52°04' E 003°44'9 9.3
2015-Jun-24 23:33N 52°01' E 003°59'10 9.8
2015-Jun-24 22:34N 51°56' E 004°12'2 2.4
2015-Jun-24 21:33N 51°54' E 004°14'0 0.0
2015-Jun-24 20:32N 51°54' E 004°14'0 0.0
2015-Jun-24 19:32N 51°54' E 004°14'0 0.0
2015-Jun-24 18:32N 51°54' E 004°14'0 0.0
2015-Jun-24 17:32N 51°54' E 004°14'0 0.0
2015-Jun-24 16:32N 51°54' E 004°14'0 0.0
2015-Jun-24 15:29N 51°54' E 004°14'0 0.0
2015-Jun-24 14:29N 51°54' E 004°14'0 0.0
2015-Jun-24 13:29N 51°54' E 004°14'0 0.0
2015-Jun-24 12:17N 51°54' E 004°14'0 0.0
2015-Jun-24 11:32N 51°54' E 004°14'0 0.0
2015-Jun-24 10:29N 51°54' E 004°14'0 0.0
2015-Jun-24 09:32N 51°54' E 004°14'0 0.0
2015-Jun-24 08:32N 51°54' E 004°14'0 0.0
2015-Jun-24 07:29N 51°54' E 004°14'0 0.0
2015-Jun-24 06:32N 51°54' E 004°14'0 0.0
2015-Jun-24 05:32N 51°54' E 004°14'0 0.0
2015-Jun-24 04:32N 51°54' E 004°14'0 0.0
2015-Jun-24 03:32N 51°54' E 004°14'0 0.0
2015-Jun-24 02:29N 51°54' E 004°14'0 0.0
2015-Jun-24 01:32N 51°54' E 004°14'0 0.0
2015-Jun-24 00:32N 51°54' E 004°14'0 0.0
2015-Jun-23 23:29N 51°54' E 004°14'0 0.0
2015-Jun-23 22:08N 51°54' E 004°14'0 0.0
2015-Jun-23 20:23N 51°54' E 004°14'0 0.0
2015-Jun-23 19:32N 51°54' E 004°14'0 0.0
2015-Jun-23 18:56N 51°54' E 004°14'16 0.7
2015-Jun-22 19:34N 51°48' E 004°38'0 0.0
2015-Jun-22 18:34N 51°48' E 004°38'0 0.0
2015-Jun-22 17:34N 51°48' E 004°38'0 0.0
2015-Jun-22 16:34N 51°48' E 004°38'0 0.0
2015-Jun-22 15:33N 51°48' E 004°38'0 0.0
2015-Jun-22 14:34N 51°48' E 004°38'0 0.0
2015-Jun-22 13:34N 51°48' E 004°38'0 0.0
2015-Jun-22 12:34N 51°48' E 004°38'0 0.0
2015-Jun-22 11:34N 51°48' E 004°38'0 0.0
2015-Jun-22 10:34N 51°48' E 004°38'0 0.0
2015-Jun-22 09:33N 51°48' E 004°38'0 0.0
2015-Jun-22 08:33N 51°48' E 004°38'0 0.0
2015-Jun-22 07:33N 51°48' E 004°38'0 0.0
2015-Jun-22 06:33N 51°48' E 004°38'0 0.0
2015-Jun-22 05:33N 51°48' E 004°38'0 0.0
2015-Jun-22 04:33N 51°48' E 004°38'0 0.0
2015-Jun-22 03:33N 51°48' E 004°38'0 0.0
2015-Jun-22 02:33N 51°48' E 004°38'0 0.0
2015-Jun-22 01:33N 51°48' E 004°38'0 0.0
2015-Jun-22 00:33N 51°48' E 004°38'0 0.0
2015-Jun-21 23:33N 51°48' E 004°38'0 0.0
2015-Jun-21 22:33N 51°48' E 004°38'0 0.0
2015-Jun-21 21:33N 51°48' E 004°38'0 0.0
2015-Jun-21 20:34N 51°48' E 004°38'0 0.0
2015-Jun-21 19:33N 51°48' E 004°38'0 0.0
2015-Jun-21 18:33N 51°48' E 004°38'0 0.0
2015-Jun-21 17:33N 51°48' E 004°38'0 0.0
2015-Jun-21 16:33N 51°48' E 004°38'0 0.0
2015-Jun-21 15:32N 51°48' E 004°38'0 0.0
2015-Jun-21 14:33N 51°48' E 004°38'0 0.0
2015-Jun-21 13:32N 51°48' E 004°38'0 0.0
2015-Jun-21 12:33N 51°48' E 004°38'0 0.0
2015-Jun-21 11:32N 51°48' E 004°38'0 0.0
2015-Jun-21 10:34N 51°48' E 004°38'0 0.0
2015-Jun-21 09:33N 51°48' E 004°38'0 0.0
2015-Jun-21 08:34N 51°48' E 004°38'0 0.3
2015-Jun-21 07:29N 51°48' E 004°38'8 8.9
2015-Jun-21 06:33N 51°51' E 004°25'10 9.8
2015-Jun-21 05:33N 51°56' E 004°12'1111.1
2015-Jun-21 04:33N 52°00' E 003°55'15 9.8
2015-Jun-21 03:04N 51°56' E 003°32'48 7.4
2015-Jun-20 20:33N 51°34' E 002°23'8 8.2
2015-Jun-20 19:33N 51°28' E 002°15'10 9.9
2015-Jun-20 18:33N 51°19' E 002°08'1110.8
2015-Jun-20 17:33N 51°11' E 001°57'1111.3
2015-Jun-20 16:34N 51°03' E 001°43'  
Track history (hours):
 
Tides and Currents Weather Stations Pressure Air Temp Water Temp Dewpoint Dewpoint Depression Visibility Wind Speed Wind Dir Waves Ship Positions

Tinsdal

Last reported at 2015-Jun-30 07:32 UTC. Time now 2015-Jun-30 08:23 UTC.
Position N 43°33' W 005°41'.

Length 90 m; draft 4.6 m.

Type: Cargo ship. MMSI: 305573000.

Date/timePositionNaut miles runAvg speedWind from/ knotsBaromVisibWave heightAir tempDewpointWater temp
2015-Jun-30 07:32N 43°33' W 005°41'0 0.0
2015-Jun-30 06:33N 43°33' W 005°41'0 0.0
2015-Jun-30 05:33N 43°33' W 005°41'0 0.0
2015-Jun-30 04:33N 43°33' W 005°41'0 0.0
2015-Jun-30 03:33N 43°33' W 005°41'0 0.0
2015-Jun-30 02:33N 43°33' W 005°41'0 0.0
2015-Jun-30 01:33N 43°33' W 005°41'0 0.0
2015-Jun-30 00:32N 43°33' W 005°41'0 0.0
2015-Jun-29 23:18N 43°33' W 005°41'0 0.0
2015-Jun-29 22:32N 43°33' W 005°41'0 0.0
2015-Jun-29 21:32N 43°33' W 005°41'0 0.0
2015-Jun-29 20:33N 43°33' W 005°41'0 0.0
2015-Jun-29 19:32N 43°33' W 005°41'0 0.0
2015-Jun-29 18:32N 43°33' W 005°41'0 0.0
2015-Jun-29 17:33N 43°33' W 005°41'0 0.0
2015-Jun-29 16:33N 43°33' W 005°41'0 0.0
2015-Jun-29 15:33N 43°33' W 005°41'0 0.0
2015-Jun-29 14:33N 43°33' W 005°41'0 0.0
2015-Jun-29 13:33N 43°33' W 005°41'0 0.0
2015-Jun-29 12:33N 43°33' W 005°41'0 0.0
2015-Jun-29 11:30N 43°33' W 005°41'0 0.0
2015-Jun-29 10:33N 43°33' W 005°41'0 0.0
2015-Jun-29 09:32N 43°33' W 005°41'0 0.0
2015-Jun-29 08:33N 43°33' W 005°41'0 0.0
2015-Jun-29 07:33N 43°33' W 005°41'0 0.0
2015-Jun-29 06:32N 43°33' W 005°41'0 0.0
2015-Jun-29 05:33N 43°33' W 005°41'0 0.0
2015-Jun-29 04:33N 43°33' W 005°41'0 0.0
2015-Jun-29 03:33N 43°33' W 005°41'0 0.0
2015-Jun-29 02:33N 43°33' W 005°41'0 0.0
2015-Jun-29 01:33N 43°33' W 005°41'0 0.0
2015-Jun-29 00:32N 43°33' W 005°41'0 0.0
2015-Jun-28 23:32N 43°33' W 005°41'0 0.0
2015-Jun-28 22:31N 43°33' W 005°41'0 0.0
2015-Jun-28 21:32N 43°33' W 005°41'0 0.0
2015-Jun-28 20:33N 43°33' W 005°41'0 0.0
2015-Jun-28 19:33N 43°33' W 005°41'0 0.0
2015-Jun-28 18:33N 43°33' W 005°41'0 0.0
2015-Jun-28 17:33N 43°33' W 005°41'0 0.0
2015-Jun-28 16:33N 43°33' W 005°41'0 0.0
2015-Jun-28 15:33N 43°33' W 005°41'0 0.0
2015-Jun-28 14:33N 43°33' W 005°41'0 0.0
2015-Jun-28 13:32N 43°33' W 005°41'0 0.0
2015-Jun-28 12:33N 43°33' W 005°41'0 0.0
2015-Jun-28 11:33N 43°33' W 005°41'0 0.0
2015-Jun-28 10:32N 43°33' W 005°41'0 0.0
2015-Jun-28 09:33N 43°33' W 005°41'0 0.0
2015-Jun-28 08:33N 43°33' W 005°41'0 0.0
2015-Jun-28 07:33N 43°33' W 005°41'0 0.2
2015-Jun-28 06:33N 43°34' W 005°41'8 7.3
2015-Jun-28 05:30N 43°41' W 005°41'138 9.6
2015-Jun-27 15:08N 45°59' W 005°49'7 9.7
2015-Jun-27 14:22N 46°06' W 005°49'8 9.6
2015-Jun-27 13:33N 46°14' W 005°50'10 9.4
2015-Jun-27 12:32N 46°24' W 005°50'9 9.3
2015-Jun-27 11:33N 46°33' W 005°51'19 9.7
2015-Jun-27 09:33N 46°52' W 005°51'257 8.0
2015-Jun-26 01:33N 50°12' W 001°46'4010.0
2015-Jun-25 21:33N 50°23' W 000°46'4310.7
2015-Jun-25 17:33N 50°35' E 000°18'9 9.4
2015-Jun-25 16:33N 50°38' E 000°32'9 9.2
2015-Jun-25 15:32N 50°43' E 000°45'10 9.5
2015-Jun-25 14:29N 50°49' E 000°57'1010.5
2015-Jun-25 13:33N 50°55' E 001°10'1411.3
2015-Jun-25 12:16N 51°04' E 001°27'811.0
2015-Jun-25 11:33N 51°10' E 001°37'1010.3
2015-Jun-25 10:33N 51°17' E 001°48'10 9.5
2015-Jun-25 09:28N 51°26' E 001°57'9 8.8
2015-Jun-25 08:29N 51°33' E 002°04'10 8.6
2015-Jun-25 07:20N 51°41' E 002°14'44 8.8
2015-Jun-25 02:22N 52°03' E 003°16'8 9.5
2015-Jun-25 01:32N 52°03' E 003°28'10 9.9
2015-Jun-25 00:33N 52°04' E 003°44'9 9.3
2015-Jun-24 23:33N 52°01' E 003°59'10 9.8
2015-Jun-24 22:34N 51°56' E 004°12'2 2.4
2015-Jun-24 21:33N 51°54' E 004°14'0 0.0
2015-Jun-24 20:32N 51°54' E 004°14'0 0.0
2015-Jun-24 19:32N 51°54' E 004°14'0 0.0
2015-Jun-24 18:32N 51°54' E 004°14'0 0.0
2015-Jun-24 17:32N 51°54' E 004°14'0 0.0
2015-Jun-24 16:32N 51°54' E 004°14'0 0.0
2015-Jun-24 15:29N 51°54' E 004°14'0 0.0
2015-Jun-24 14:29N 51°54' E 004°14'0 0.0
2015-Jun-24 13:29N 51°54' E 004°14'0 0.0
2015-Jun-24 12:17N 51°54' E 004°14'0 0.0
2015-Jun-24 11:32N 51°54' E 004°14'0 0.0
2015-Jun-24 10:29N 51°54' E 004°14'0 0.0
2015-Jun-24 09:32N 51°54' E 004°14'0 0.0
2015-Jun-24 08:32N 51°54' E 004°14'0 0.0
2015-Jun-24 07:29N 51°54' E 004°14'0 0.0
2015-Jun-24 06:32N 51°54' E 004°14'0 0.0
2015-Jun-24 05:32N 51°54' E 004°14'0 0.0
2015-Jun-24 04:32N 51°54' E 004°14'0 0.0
2015-Jun-24 03:32N 51°54' E 004°14'0 0.0
2015-Jun-24 02:29N 51°54' E 004°14'0 0.0
2015-Jun-24 01:32N 51°54' E 004°14'0 0.0
2015-Jun-24 00:32N 51°54' E 004°14'0 0.0
2015-Jun-23 23:29N 51°54' E 004°14'0 0.0
2015-Jun-23 22:08N 51°54' E 004°14'0 0.0
2015-Jun-23 20:23N 51°54' E 004°14'0 0.0
2015-Jun-23 19:32N 51°54' E 004°14'0 0.0
2015-Jun-23 18:56N 51°54' E 004°14'16 0.7
2015-Jun-22 19:34N 51°48' E 004°38'0 0.0
2015-Jun-22 18:34N 51°48' E 004°38'0 0.0
2015-Jun-22 17:34N 51°48' E 004°38'0 0.0
2015-Jun-22 16:34N 51°48' E 004°38'0 0.0
2015-Jun-22 15:33N 51°48' E 004°38'0 0.0
2015-Jun-22 14:34N 51°48' E 004°38'0 0.0
2015-Jun-22 13:34N 51°48' E 004°38'0 0.0
2015-Jun-22 12:34N 51°48' E 004°38'0 0.0
2015-Jun-22 11:34N 51°48' E 004°38'0 0.0
2015-Jun-22 10:34N 51°48' E 004°38'0 0.0
2015-Jun-22 09:33N 51°48' E 004°38'0 0.0
2015-Jun-22 08:33N 51°48' E 004°38'0 0.0
2015-Jun-22 07:33N 51°48' E 004°38'0 0.0
2015-Jun-22 06:33N 51°48' E 004°38'0 0.0
2015-Jun-22 05:33N 51°48' E 004°38'0 0.0
2015-Jun-22 04:33N 51°48' E 004°38'0 0.0
2015-Jun-22 03:33N 51°48' E 004°38'0 0.0
2015-Jun-22 02:33N 51°48' E 004°38'0 0.0
2015-Jun-22 01:33N 51°48' E 004°38'0 0.0
2015-Jun-22 00:33N 51°48' E 004°38'0 0.0
2015-Jun-21 23:33N 51°48' E 004°38'0 0.0
2015-Jun-21 22:33N 51°48' E 004°38'0 0.0
2015-Jun-21 21:33N 51°48' E 004°38'0 0.0
2015-Jun-21 20:34N 51°48' E 004°38'0 0.0
2015-Jun-21 19:33N 51°48' E 004°38'0 0.0
2015-Jun-21 18:33N 51°48' E 004°38'0 0.0
2015-Jun-21 17:33N 51°48' E 004°38'0 0.0
2015-Jun-21 16:33N 51°48' E 004°38'0 0.0
2015-Jun-21 15:32N 51°48' E 004°38'0 0.0
2015-Jun-21 14:33N 51°48' E 004°38'0 0.0
2015-Jun-21 13:32N 51°48' E 004°38'0 0.0
2015-Jun-21 12:33N 51°48' E 004°38'0 0.0
2015-Jun-21 11:32N 51°48' E 004°38'0 0.0
2015-Jun-21 10:34N 51°48' E 004°38'0 0.0
2015-Jun-21 09:33N 51°48' E 004°38'0 0.0
2015-Jun-21 08:34N 51°48' E 004°38'0 0.3
2015-Jun-21 07:29N 51°48' E 004°38'8 8.9
2015-Jun-21 06:33N 51°51' E 004°25'10 9.8
2015-Jun-21 05:33N 51°56' E 004°12'1111.1
2015-Jun-21 04:33N 52°00' E 003°55'15 9.8
2015-Jun-21 03:04N 51°56' E 003°32'48 7.4
2015-Jun-20 20:33N 51°34' E 002°23'8 8.2
2015-Jun-20 19:33N 51°28' E 002°15'10 9.9
2015-Jun-20 18:33N 51°19' E 002°08'1110.8
2015-Jun-20 17:33N 51°11' E 001°57'1111.3
2015-Jun-20 16:34N 51°03' E 001°43'  

Dump ship's entire track history